Time;durP1;ratioP1;P1;durP2;ratioP2;P2;SDS_P1;SDS_P2;PMS_P1;PMS_P2;Temp;Humidity;BMP_temperature;BMP_pressure;BME280_temperature;BME280_humidity;BME280_pressure;Samples;Min_cycle;Max_cycle;Signal;HPM_P1;HPM_P2
2022/10/18 00:00:47;;;;;;;26.35;8.35;;;13.20;99.90;;;;;;5067939;28;20041;-72
2022/10/18 00:03:13;;;;;;;19.35;8.23;;;13.30;99.90;;;;;;5067559;28;20090;-75
2022/10/18 00:05:39;;;;;;;21.02;7.65;;;13.30;99.90;;;;;;5069184;28;20040;-68
2022/10/18 00:08:05;;;;;;;17.13;7.35;;;13.30;99.90;;;;;;5069864;28;20040;-67
2022/10/18 00:10:30;;;;;;;22.75;7.57;;;13.30;99.90;;;;;;5052163;28;20391;-68
2022/10/18 00:12:56;;;;;;;20.23;7.32;;;13.30;99.90;;;;;;5050262;28;20040;-67
2022/10/18 00:15:22;;;;;;;23.65;7.70;;;13.30;99.90;;;;;;5069635;28;20045;-72
2022/10/18 00:17:48;;;;;;;20.27;6.90;;;13.30;99.90;;;;;;5050124;28;20460;-68
2022/10/18 00:20:14;;;;;;;21.88;9.45;;;13.30;99.90;;;;;;5069795;28;20049;-67
2022/10/18 00:22:40;;;;;;;17.23;8.30;;;13.20;99.90;;;;;;5068651;28;20045;-68
2022/10/18 00:25:07;;;;;;;22.65;8.85;;;13.10;99.90;;;;;;5069486;28;20462;-67
2022/10/18 00:27:34;;;;;;;19.73;8.63;;;13.00;99.90;;;;;;5069195;28;20070;-67
2022/10/18 00:29:59;;;;;;;71.25;9.93;;;12.90;99.90;;;;;;5068517;28;20029;-68
2022/10/18 00:32:26;;;;;;;95.20;9.43;;;12.80;99.90;;;;;;5051602;28;20493;-68
2022/10/18 00:34:51;;;;;;;74.30;8.30;;;12.80;99.90;;;;;;5067561;28;20041;-68
2022/10/18 00:37:17;;;;;;;260.00;12.65;;;12.70;99.90;;;;;;5069978;28;20052;-69
2022/10/18 00:39:43;;;;;;;64.95;9.27;;;12.70;99.90;;;;;;5049676;28;20094;-68
2022/10/18 00:42:18;;;;;;;35.97;7.97;;;12.60;99.90;;;;;;5051441;28;20029;-68
2022/10/18 00:44:43;;;;;;;23.23;9.18;;;12.60;99.90;;;;;;5068686;28;20049;-84
2022/10/18 00:47:13;;;;;;;16.83;9.57;;;12.60;99.90;;;;;;5068851;28;20435;-68
2022/10/18 00:49:47;;;;;;;55.10;11.47;;;12.60;99.90;;;;;;5034617;28;20119;-68
2022/10/18 00:52:26;;;;;;;30.05;9.10;;;12.60;99.90;;;;;;5066923;28;20056;-70
2022/10/18 00:54:53;;;;;;;40.58;9.70;;;12.60;99.90;;;;;;5069205;28;20094;-86
2022/10/18 00:57:19;;;;;;;69.07;11.07;;;12.60;99.90;;;;;;5068145;28;20036;-68
2022/10/18 00:59:46;;;;;;;142.20;13.00;;;12.60;99.90;;;;;;5068548;28;20078;-68
2022/10/18 01:02:14;;;;;;;104.57;12.95;;;12.70;99.90;;;;;;5068583;28;20040;-68
2022/10/18 01:04:40;;;;;;;120.78;12.75;;;12.80;99.90;;;;;;5050006;28;20444;-68
2022/10/18 01:07:35;;;;;;;139.00;12.55;;;12.80;99.90;;;;;;5068510;28;20044;-68
2022/10/18 01:10:29;;;;;;;150.18;13.63;;;12.90;99.90;;;;;;5053556;28;20102;-68
2022/10/18 01:13:10;;;;;;;108.82;12.18;;;12.90;99.90;;;;;;5068305;28;20048;-78
2022/10/18 01:15:48;;;;;;;124.90;12.23;;;12.90;99.90;;;;;;5069170;28;20127;-69
2022/10/18 01:18:37;;;;;;;171.55;15.77;;;12.90;99.90;;;;;;5055542;28;20127;-68
2022/10/18 01:21:44;;;;;;;156.73;14.13;;;12.90;99.90;;;;;;5068108;28;20572;-68
2022/10/18 01:24:27;;;;;;;302.75;14.95;;;12.90;99.90;;;;;;5006659;28;20514;-68
2022/10/18 01:27:10;;;;;;;176.60;16.70;;;12.90;99.90;;;;;;5005051;28;20069;-88
2022/10/18 01:30:06;;;;;;;237.20;15.43;;;12.90;99.90;;;;;;5049373;28;20053;-86
2022/10/18 01:32:46;;;;;;;332.65;19.05;;;12.90;99.90;;;;;;5050549;28;20051;-68
2022/10/18 01:35:17;;;;;;;334.35;17.17;;;12.90;99.90;;;;;;5067874;28;20048;-68
2022/10/18 01:37:47;;;;;;;429.10;18.27;;;12.90;99.90;;;;;;5050774;28;20765;-68
2022/10/18 01:40:17;;;;;;;396.58;16.48;;;12.90;99.90;;;;;;5049642;28;20545;-68
2022/10/18 01:42:46;;;;;;;316.98;14.90;;;12.90;99.90;;;;;;5067869;28;20048;-87
2022/10/18 01:45:14;;;;;;;332.20;14.33;;;12.90;99.90;;;;;;5049634;28;20790;-68
2022/10/18 01:47:43;;;;;;;355.75;18.45;;;12.90;99.90;;;;;;5049848;28;20052;-68
2022/10/18 01:50:09;;;;;;;393.40;18.35;;;12.90;99.90;;;;;;5067866;28;20079;-68
2022/10/18 01:52:35;;;;;;;371.83;16.95;;;12.90;99.90;;;;;;5031783;28;20114;-68
2022/10/18 01:55:02;;;;;;;388.80;20.25;;;12.90;99.90;;;;;;5067702;28;20098;-67
2022/10/18 01:57:41;;;;;;;339.73;19.13;;;12.90;99.90;;;;;;5067528;28;20040;-84
2022/10/18 02:00:17;;;;;;;465.58;23.35;;;12.90;99.90;;;;;;5048899;28;20095;-70
2022/10/18 02:02:58;;;;;;;375.70;20.55;;;12.90;99.90;;;;;;5049339;28;20052;-68
2022/10/18 02:05:37;;;;;;;424.70;21.58;;;12.90;99.90;;;;;;5046694;28;20046;-89
2022/10/18 02:08:15;;;;;;;353.30;20.77;;;12.90;99.90;;;;;;5049862;28;20482;-78
2022/10/18 02:10:47;;;;;;;344.48;18.42;;;12.90;99.90;;;;;;5048806;28;20056;-88
2022/10/18 02:13:16;;;;;;;361.00;20.05;;;12.90;99.90;;;;;;5067539;28;20080;-68
2022/10/18 02:15:46;;;;;;;197.07;17.00;;;12.90;99.90;;;;;;5048911;28;20044;-90
2022/10/18 02:18:20;;;;;;;228.25;16.15;;;12.90;99.90;;;;;;5066594;28;20043;-69
2022/10/18 02:20:47;;;;;;;301.50;19.40;;;12.90;99.90;;;;;;5049667;28;20063;-68
2022/10/18 02:23:15;;;;;;;307.10;17.48;;;12.80;99.90;;;;;;5048320;28;20048;-67
2022/10/18 02:25:40;;;;;;;168.57;13.00;;;12.80;99.90;;;;;;5067815;28;20410;-76
2022/10/18 02:28:06;;;;;;;270.25;17.35;;;12.80;99.90;;;;;;5065626;28;20473;-68
2022/10/18 02:30:43;;;;;;;229.73;15.60;;;12.80;99.90;;;;;;5066790;28;20041;-68
2022/10/18 02:33:21;;;;;;;246.02;16.33;;;12.80;99.90;;;;;;5066848;28;20045;-69
2022/10/18 02:35:52;;;;;;;253.77;15.70;;;12.70;99.90;;;;;;5065171;28;20048;-68
2022/10/18 02:38:19;;;;;;;258.38;15.50;;;12.70;99.90;;;;;;5067503;28;20112;-68
2022/10/18 02:40:45;;;;;;;217.65;16.15;;;12.70;99.90;;;;;;5065424;28;20108;-67
2022/10/18 02:43:12;;;;;;;241.38;16.45;;;12.70;99.90;;;;;;5048624;28;20155;-68
2022/10/18 02:45:38;;;;;;;187.40;14.32;;;12.70;99.90;;;;;;5066698;28;20463;-89
2022/10/18 02:48:04;;;;;;;195.75;13.10;;;12.70;99.90;;;;;;5066294;28;20075;-68
2022/10/18 02:50:30;;;;;;;247.50;15.32;;;12.70;99.90;;;;;;5067209;28;20083;-68
2022/10/18 02:52:55;;;;;;;192.85;13.93;;;12.70;99.90;;;;;;5026920;28;20063;-68
2022/10/18 02:55:21;;;;;;;184.05;13.43;;;12.70;99.90;;;;;;5046226;28;20076;-68
2022/10/18 02:57:47;;;;;;;186.15;15.38;;;12.70;99.90;;;;;;5046588;28;20114;-68
2022/10/18 03:00:13;;;;;;;275.13;19.50;;;12.70;99.90;;;;;;5051584;28;20387;-68
2022/10/18 03:02:38;;;;;;;179.73;16.23;;;12.70;99.90;;;;;;5050692;28;20072;-81
2022/10/18 03:05:04;;;;;;;181.30;14.35;;;12.70;99.90;;;;;;5047631;28;20041;-67
2022/10/18 03:07:30;;;;;;;198.95;16.60;;;12.70;99.90;;;;;;5048204;28;20489;-69
2022/10/18 03:09:56;;;;;;;186.55;14.65;;;12.70;99.90;;;;;;5045614;28;20037;-68
2022/10/18 03:12:22;;;;;;;157.10;13.80;;;12.70;99.90;;;;;;5045368;28;20494;-75
2022/10/18 03:14:47;;;;;;;198.02;16.88;;;12.70;99.90;;;;;;5045308;28;20418;-67
2022/10/18 03:17:13;;;;;;;172.50;14.45;;;12.70;99.90;;;;;;5046745;28;20047;-68
2022/10/18 03:19:39;;;;;;;166.63;15.27;;;12.70;99.90;;;;;;5045119;28;20063;-68
2022/10/18 03:22:05;;;;;;;120.15;14.48;;;12.80;99.90;;;;;;5046662;28;20037;-67
2022/10/18 03:24:30;;;;;;;148.27;15.82;;;12.70;99.90;;;;;;5044435;28;20072;-70
2022/10/18 03:26:56;;;;;;;151.00;13.93;;;12.70;99.90;;;;;;5046347;28;20739;-68
2022/10/18 03:29:22;;;;;;;144.98;13.25;;;12.70;99.90;;;;;;5046116;28;20040;-69
2022/10/18 03:31:48;;;;;;;220.65;17.73;;;12.70;99.90;;;;;;5045555;28;20049;-68
2022/10/18 03:34:15;;;;;;;212.00;14.57;;;12.70;99.90;;;;;;5045020;28;20071;-90
2022/10/18 03:36:41;;;;;;;262.00;14.73;;;12.70;99.90;;;;;;5033978;28;20053;-68
2022/10/18 03:39:07;;;;;;;204.30;13.63;;;12.70;99.90;;;;;;5043550;28;20048;-68
2022/10/18 03:41:32;;;;;;;112.38;10.48;;;12.60;99.90;;;;;;5045432;28;20029;-86
2022/10/18 03:43:58;;;;;;;246.13;13.27;;;12.60;99.90;;;;;;5046459;28;20505;-68
2022/10/18 03:46:23;;;;;;;216.27;11.95;;;12.60;99.90;;;;;;5045576;28;20118;-76
2022/10/18 03:48:49;;;;;;;306.73;16.30;;;12.60;99.90;;;;;;5045871;28;20043;-67
2022/10/18 03:51:15;;;;;;;304.50;12.68;;;12.50;99.90;;;;;;5046045;28;20505;-68
2022/10/18 03:53:40;;;;;;;311.45;14.93;;;12.60;99.90;;;;;;5043801;28;20533;-81
2022/10/18 03:56:06;;;;;;;341.08;15.23;;;12.50;99.90;;;;;;5045882;28;20115;-68
2022/10/18 03:58:32;;;;;;;211.50;14.93;;;12.50;99.90;;;;;;5044336;28;20067;-68
2022/10/18 04:00:57;;;;;;;297.77;14.13;;;12.50;99.90;;;;;;5028518;28;20509;-77
2022/10/18 04:03:23;;;;;;;222.07;13.05;;;12.50;99.90;;;;;;5045849;28;20063;-67
2022/10/18 04:05:49;;;;;;;208.25;12.30;;;12.50;99.90;;;;;;5046500;28;20087;-72
2022/10/18 04:08:16;;;;;;;251.60;11.80;;;12.50;99.90;;;;;;5044973;28;20460;-67
2022/10/18 04:10:42;;;;;;;224.77;13.18;;;12.50;99.90;;;;;;5045972;28;20043;-69
2022/10/18 04:13:08;;;;;;;209.93;11.40;;;12.50;99.90;;;;;;5046052;28;20092;-67
2022/10/18 04:15:34;;;;;;;286.05;12.35;;;12.40;99.90;;;;;;5045264;28;20037;-68
2022/10/18 04:18:00;;;;;;;274.58;13.13;;;12.40;99.90;;;;;;5045999;28;20386;-68
2022/10/18 04:20:26;;;;;;;190.80;10.88;;;12.40;99.90;;;;;;5044189;28;20506;-68
2022/10/18 04:22:54;;;;;;;163.38;9.40;;;12.40;99.90;;;;;;5045936;28;20037;-67
2022/10/18 04:25:20;;;;;;;158.07;9.20;;;12.40;99.90;;;;;;5045123;28;20521;-67
2022/10/18 04:27:46;;;;;;;127.88;8.63;;;12.30;99.90;;;;;;5029736;28;20060;-84
2022/10/18 04:30:12;;;;;;;154.60;11.00;;;12.30;99.90;;;;;;5048080;28;20037;-68
2022/10/18 04:32:37;;;;;;;133.90;9.65;;;12.30;99.90;;;;;;5048479;28;20033;-67
2022/10/18 04:35:04;;;;;;;159.13;10.80;;;12.30;99.90;;;;;;5050175;28;20040;-73
2022/10/18 04:37:30;;;;;;;134.45;10.30;;;12.30;99.90;;;;;;5048127;28;20044;-68
2022/10/18 04:39:56;;;;;;;163.32;11.00;;;12.30;99.90;;;;;;5049753;28;20036;-68
2022/10/18 04:42:22;;;;;;;131.10;9.38;;;12.30;99.90;;;;;;5048621;28;20510;-73
2022/10/18 04:44:48;;;;;;;148.90;10.45;;;12.30;99.90;;;;;;5047766;28;20040;-67
2022/10/18 04:47:14;;;;;;;172.43;10.93;;;12.30;99.90;;;;;;5049209;28;20052;-71
2022/10/18 04:49:40;;;;;;;178.85;10.00;;;12.20;99.90;;;;;;5047459;28;20071;-68
2022/10/18 04:52:06;;;;;;;140.65;10.23;;;12.20;99.90;;;;;;5049793;28;20127;-72
2022/10/18 04:54:31;;;;;;;153.18;9.63;;;12.20;99.90;;;;;;5046060;28;20057;-67
2022/10/18 04:56:57;;;;;;;160.90;13.02;;;12.20;99.90;;;;;;5049582;28;20501;-68
2022/10/18 04:59:23;;;;;;;130.85;10.00;;;12.20;99.90;;;;;;5048237;28;20041;-69
2022/10/18 05:01:48;;;;;;;102.18;8.95;;;12.10;99.90;;;;;;5049557;28;20044;-69
2022/10/18 05:04:14;;;;;;;163.65;10.25;;;12.10;99.90;;;;;;5048705;28;20041;-67
2022/10/18 05:06:40;;;;;;;199.25;10.35;;;12.10;99.90;;;;;;5048666;28;20132;-68
2022/10/18 05:09:05;;;;;;;219.05;12.70;;;12.10;99.90;;;;;;5050575;28;20073;-72
2022/10/18 05:11:31;;;;;;;130.75;10.25;;;12.00;99.90;;;;;;5049253;28;20094;-68
2022/10/18 05:13:57;;;;;;;184.55;12.43;;;12.00;99.90;;;;;;5048983;28;20080;-88
2022/10/18 05:16:22;;;;;;;180.82;12.05;;;12.00;99.90;;;;;;5013814;28;20048;-68
2022/10/18 05:18:48;;;;;;;167.07;11.00;;;12.00;99.90;;;;;;5052134;28;20441;-68
2022/10/18 05:21:14;;;;;;;163.40;9.60;;;12.10;99.90;;;;;;5049656;28;20310;-83
2022/10/18 05:23:39;;;;;;;150.73;9.43;;;12.10;99.90;;;;;;5032566;28;20120;-67
2022/10/18 05:26:06;;;;;;;151.00;10.25;;;12.00;99.90;;;;;;5047871;28;20087;-67
2022/10/18 05:28:33;;;;;;;176.35;10.52;;;12.10;99.90;;;;;;5047193;28;20040;-68
2022/10/18 05:31:06;;;;;;;158.43;9.82;;;12.00;99.90;;;;;;5051695;28;20049;-68
2022/10/18 05:33:32;;;;;;;223.73;10.70;;;12.00;99.90;;;;;;5032733;28;20068;-78
2022/10/18 05:35:58;;;;;;;112.32;8.05;;;12.00;99.90;;;;;;5050931;28;20124;-68
2022/10/18 05:38:24;;;;;;;191.60;11.77;;;12.00;99.90;;;;;;5049652;28;20568;-68
2022/10/18 05:40:50;;;;;;;160.98;9.75;;;12.00;99.90;;;;;;5050902;28;20044;-67
2022/10/18 05:43:16;;;;;;;66.57;9.00;;;12.00;99.90;;;;;;5032257;28;20494;-76
2022/10/18 05:45:51;;;;;;;95.50;8.85;;;11.90;99.90;;;;;;5050952;28;20114;-68
2022/10/18 05:48:17;;;;;;;112.30;9.63;;;12.00;99.90;;;;;;5033216;28;20045;-68
2022/10/18 05:50:44;;;;;;;117.07;9.80;;;11.90;99.90;;;;;;5049954;28;20045;-87
2022/10/18 05:53:10;;;;;;;206.27;12.18;;;11.90;99.90;;;;;;5059009;28;20056;-67
2022/10/18 05:55:36;;;;;;;287.63;12.20;;;11.90;99.90;;;;;;5052144;28;20085;-82
2022/10/18 05:58:03;;;;;;;391.80;14.85;;;11.90;99.90;;;;;;5070112;28;20044;-68
2022/10/18 06:00:28;;;;;;;294.75;11.25;;;11.90;99.90;;;;;;5068711;28;20493;-68
2022/10/18 06:02:55;;;;;;;187.50;8.88;;;11.90;99.90;;;;;;5069259;28;20186;-68
2022/10/18 06:05:20;;;;;;;212.10;10.88;;;11.80;99.90;;;;;;5062633;28;20402;-76
2022/10/18 06:07:46;;;;;;;138.48;8.07;;;11.80;99.90;;;;;;5069028;28;20056;-68
2022/10/18 06:10:11;;;;;;;237.00;10.63;;;11.80;99.90;;;;;;5071615;28;20379;-75
2022/10/18 06:12:37;;;;;;;255.02;11.38;;;11.80;99.90;;;;;;5081299;28;20036;-69
2022/10/18 06:15:04;;;;;;;215.27;10.52;;;11.80;99.90;;;;;;5089205;28;20051;-69
2022/10/18 06:17:29;;;;;;;187.43;10.73;;;11.80;99.90;;;;;;5064039;28;20466;-68
2022/10/18 06:19:55;;;;;;;221.27;10.73;;;11.70;99.90;;;;;;5066736;28;20051;-70
2022/10/18 06:22:21;;;;;;;191.10;9.52;;;11.70;99.90;;;;;;5080262;28;20032;-71
2022/10/18 06:24:46;;;;;;;175.90;8.57;;;11.70;99.90;;;;;;5070808;28;20627;-68
2022/10/18 06:27:12;;;;;;;205.80;11.07;;;11.70;99.90;;;;;;5053010;28;20406;-68
2022/10/18 06:29:39;;;;;;;195.48;9.23;;;11.60;99.90;;;;;;5069097;28;20098;-69
2022/10/18 06:32:07;;;;;;;261.58;9.57;;;11.60;99.90;;;;;;5070555;28;20067;-68
2022/10/18 06:34:33;;;;;;;233.63;9.35;;;11.60;99.90;;;;;;5050815;28;20044;-68
2022/10/18 06:36:58;;;;;;;156.02;7.13;;;11.60;99.90;;;;;;5071263;28;20113;-69
2022/10/18 06:39:25;;;;;;;145.45;8.15;;;11.60;99.90;;;;;;5069566;28;20474;-68
2022/10/18 06:41:51;;;;;;;211.20;9.45;;;11.60;99.90;;;;;;5055765;28;20254;-82
2022/10/18 06:44:17;;;;;;;117.80;7.57;;;11.60;99.90;;;;;;5072355;28;20097;-68
2022/10/18 06:46:44;;;;;;;213.65;8.88;;;11.60;99.90;;;;;;5053209;28;20064;-68
2022/10/18 06:49:11;;;;;;;153.63;8.65;;;11.60;99.90;;;;;;5071792;28;20055;-68
2022/10/18 06:51:37;;;;;;;80.40;6.68;;;11.60;99.90;;;;;;5051429;28;20161;-68
2022/10/18 06:54:03;;;;;;;143.68;10.15;;;11.70;99.90;;;;;;5056019;28;20093;-68
2022/10/18 06:56:29;;;;;;;150.45;9.68;;;11.60;99.90;;;;;;5072456;28;20071;-84
2022/10/18 06:58:54;;;;;;;83.22;7.60;;;11.60;99.90;;;;;;5073040;28;20041;-68
2022/10/18 07:01:20;;;;;;;181.65;9.13;;;11.60;99.90;;;;;;5052261;28;20029;-80
2022/10/18 07:03:48;;;;;;;208.07;8.45;;;11.60;99.90;;;;;;5053603;28;20062;-68
2022/10/18 07:06:16;;;;;;;158.05;6.78;;;11.50;99.90;;;;;;5052867;28;20106;-68
2022/10/18 07:08:42;;;;;;;281.83;8.98;;;11.50;99.90;;;;;;5067342;28;20464;-68
2022/10/18 07:11:12;;;;;;;202.35;7.32;;;11.60;99.90;;;;;;5066349;28;20040;-68
2022/10/18 07:13:38;;;;;;;173.23;7.13;;;11.60;99.90;;;;;;5068519;28;20056;-68
2022/10/18 07:16:06;;;;;;;155.75;7.20;;;11.50;99.90;;;;;;5078578;28;20041;-69
2022/10/18 07:18:37;;;;;;;173.52;7.35;;;11.50;99.90;;;;;;5060440;28;20113;-69
2022/10/18 07:21:05;;;;;;;106.40;6.07;;;11.50;99.90;;;;;;5081268;28;20053;-69
2022/10/18 07:23:32;;;;;;;157.43;6.95;;;11.50;99.90;;;;;;5058705;28;20044;-68
2022/10/18 07:25:59;;;;;;;140.02;6.97;;;11.50;99.90;;;;;;5048819;28;20094;-69
2022/10/18 07:28:28;;;;;;;230.35;7.82;;;11.50;99.90;;;;;;5083948;28;20040;-71
2022/10/18 07:30:54;;;;;;;73.80;5.90;;;11.70;99.90;;;;;;5065330;28;20047;-69
2022/10/18 07:33:20;;;;;;;249.85;8.85;;;11.70;99.90;;;;;;5057720;28;20040;-69
2022/10/18 07:35:46;;;;;;;162.77;7.40;;;11.80;99.90;;;;;;5085149;28;20541;-69
2022/10/18 07:38:12;;;;;;;164.00;7.13;;;11.80;99.90;;;;;;5084042;28;20047;-68
2022/10/18 07:40:38;;;;;;;97.05;5.80;;;11.80;99.90;;;;;;5065096;28;20051;-68
2022/10/18 07:43:04;;;;;;;127.55;5.95;;;11.80;99.90;;;;;;5065283;28;20051;-75
2022/10/18 07:45:30;;;;;;;127.40;6.35;;;11.80;99.90;;;;;;5050395;28;20042;-69
2022/10/18 07:47:56;;;;;;;145.10;7.00;;;11.90;99.90;;;;;;5067643;28;20100;-68
2022/10/18 07:50:22;;;;;;;59.30;5.05;;;11.90;99.90;;;;;;5081401;28;20040;-68
2022/10/18 07:52:48;;;;;;;55.25;5.22;;;12.00;99.90;;;;;;5062431;28;20086;-69
2022/10/18 07:55:14;;;;;;;94.20;6.63;;;12.00;99.90;;;;;;5057623;28;20045;-68
2022/10/18 07:57:40;;;;;;;50.00;6.10;;;12.00;99.90;;;;;;5046202;28;20051;-69
2022/10/18 08:00:07;;;;;;;10.85;5.45;;;12.20;99.90;;;;;;5058028;28;20094;-71
2022/10/18 08:02:33;;;;;;;8.77;4.90;;;12.30;99.90;;;;;;5064016;28;20505;-68
2022/10/18 08:04:59;;;;;;;10.35;5.82;;;12.30;99.90;;;;;;5066215;28;20052;-69
2022/10/18 08:07:25;;;;;;;17.58;6.28;;;12.40;99.90;;;;;;5066794;28;20102;-69
2022/10/18 08:09:51;;;;;;;13.63;6.40;;;12.50;99.90;;;;;;5065250;28;20135;-68
2022/10/18 08:12:16;;;;;;;19.23;6.57;;;12.60;99.90;;;;;;5067253;28;20090;-69
2022/10/18 08:14:42;;;;;;;9.95;5.75;;;12.70;99.90;;;;;;5066863;28;20040;-68
2022/10/18 08:17:08;;;;;;;13.25;5.97;;;12.90;99.90;;;;;;5064938;28;20704;-69
2022/10/18 08:19:34;;;;;;;15.45;6.30;;;13.00;99.90;;;;;;5059499;28;20495;-68
2022/10/18 08:21:59;;;;;;;12.27;6.18;;;13.10;99.90;;;;;;5060208;28;20041;-68
2022/10/18 08:24:25;;;;;;;10.73;5.50;;;13.20;99.90;;;;;;5063341;28;20112;-68
2022/10/18 08:26:51;;;;;;;13.43;5.75;;;13.20;99.90;;;;;;5064375;28;20049;-68
2022/10/18 08:29:17;;;;;;;12.88;6.40;;;13.30;99.90;;;;;;5062201;28;20044;-69
2022/10/18 08:31:42;;;;;;;12.27;6.25;;;13.40;99.90;;;;;;5064643;28;20041;-68
2022/10/18 08:34:08;;;;;;;13.05;6.45;;;13.40;99.90;;;;;;5066575;28;20045;-69
2022/10/18 08:36:34;;;;;;;12.45;5.22;;;13.40;99.90;;;;;;5062469;28;20044;-68
2022/10/18 08:39:01;;;;;;;26.77;5.43;;;13.50;99.90;;;;;;5064196;28;20033;-68
2022/10/18 08:41:36;;;;;;;22.55;5.35;;;13.50;99.90;;;;;;5056133;28;20045;-68
2022/10/18 08:44:05;;;;;;;17.85;5.57;;;13.50;99.90;;;;;;5064866;28;20048;-68
2022/10/18 08:46:33;;;;;;;17.15;5.65;;;13.50;99.90;;;;;;5064894;28;20040;-69
2022/10/18 08:49:00;;;;;;;22.85;5.07;;;13.40;99.90;;;;;;5050714;28;20740;-68
2022/10/18 08:51:34;;;;;;;20.30;4.45;;;13.40;99.90;;;;;;5052068;28;20075;-69
2022/10/18 08:54:29;;;;;;;25.42;5.60;;;13.40;99.90;;;;;;5063269;28;20056;-69
2022/10/18 08:57:01;;;;;;;19.20;5.40;;;13.40;99.90;;;;;;5046034;28;20376;-69
2022/10/18 08:59:37;;;;;;;19.05;4.38;;;13.30;99.90;;;;;;5062731;28;20041;-68
2022/10/18 09:02:15;;;;;;;17.35;5.30;;;13.30;99.90;;;;;;5060963;28;20253;-69
2022/10/18 09:04:40;;;;;;;19.67;4.32;;;13.30;99.90;;;;;;5064483;28;20128;-69
2022/10/18 09:07:27;;;;;;;15.90;4.00;;;13.20;99.90;;;;;;5065705;28;20844;-68
2022/10/18 09:10:07;;;;;;;22.23;5.43;;;13.30;99.90;;;;;;5056921;28;20128;-68
2022/10/18 09:13:11;;;;;;;24.92;5.05;;;13.40;99.90;;;;;;5049070;28;20025;-68
2022/10/18 09:15:49;;;;;;;16.88;4.43;;;13.50;99.90;;;;;;5050516;28;20391;-68
2022/10/18 09:18:38;;;;;;;12.10;3.78;;;13.60;99.90;;;;;;5053498;28;20040;-68
2022/10/18 09:21:12;;;;;;;21.05;4.35;;;13.60;99.90;;;;;;5049957;28;20120;-69
2022/10/18 09:23:46;;;;;;;13.32;3.67;;;13.70;99.90;;;;;;5051396;28;20049;-68
2022/10/18 09:26:25;;;;;;;15.02;4.55;;;13.80;99.90;;;;;;5061969;28;20486;-69
2022/10/18 09:29:00;;;;;;;11.52;3.70;;;13.80;99.90;;;;;;5059353;28;20048;-69
2022/10/18 09:31:40;;;;;;;10.20;2.88;;;13.80;99.90;;;;;;5062239;28;20040;-68
2022/10/18 09:34:37;;;;;;;10.82;2.53;;;14.00;99.90;;;;;;5056838;28;20040;-68
2022/10/18 09:37:08;;;;;;;18.50;4.03;;;14.10;99.90;;;;;;5052585;28;20058;-69
2022/10/18 09:39:37;;;;;;;18.52;4.05;;;14.20;99.90;;;;;;5046252;28;20417;-69
2022/10/18 09:42:33;;;;;;;16.27;2.97;;;14.20;99.90;;;;;;5044369;28;20036;-68
2022/10/18 09:45:21;;;;;;;15.05;2.78;;;14.40;99.90;;;;;;5046647;28;20513;-68
2022/10/18 09:47:57;;;;;;;15.40;2.42;;;14.40;99.90;;;;;;5038758;28;20057;-68
2022/10/18 09:50:31;;;;;;;13.45;2.63;;;14.40;99.90;;;;;;5046748;28;20056;-68
2022/10/18 09:53:10;;;;;;;16.00;2.63;;;14.50;99.90;;;;;;5042560;28;20569;-68
2022/10/18 09:55:47;;;;;;;21.33;3.60;;;14.50;99.90;;;;;;5060754;28;20054;-68
2022/10/18 09:58:14;;;;;;;17.35;2.95;;;14.60;99.90;;;;;;5063772;28;20171;-68
2022/10/18 10:00:48;;;;;;;13.60;2.60;;;14.70;99.90;;;;;;5053292;28;20369;-68
2022/10/18 10:03:14;;;;;;;12.75;2.30;;;14.70;99.90;;;;;;5051053;28;20059;-69
2022/10/18 10:05:42;;;;;;;17.30;2.15;;;14.80;99.90;;;;;;5053990;28;20487;-68
2022/10/18 10:08:07;;;;;;;12.68;2.40;;;14.90;99.90;;;;;;5062944;28;20065;-67
2022/10/18 10:10:37;;;;;;;13.60;2.60;;;15.00;99.90;;;;;;5056740;28;20072;-68
2022/10/18 10:13:15;;;;;;;25.60;4.97;;;15.00;99.90;;;;;;5031698;28;20045;-68
2022/10/18 10:15:52;;;;;;;16.02;2.58;;;15.10;99.90;;;;;;5051890;28;20065;-67
2022/10/18 10:18:38;;;;;;;16.60;2.65;;;15.20;99.90;;;;;;5049841;28;20036;-68
2022/10/18 10:21:06;;;;;;;18.75;2.58;;;15.20;99.90;;;;;;5056203;28;20045;-69
2022/10/18 10:23:37;;;;;;;20.17;3.13;;;15.20;99.90;;;;;;5052690;28;20040;-68
2022/10/18 10:26:19;;;;;;;22.20;3.83;;;15.20;99.90;;;;;;5057526;28;20593;-68
2022/10/18 10:28:47;;;;;;;15.77;2.40;;;15.20;99.90;;;;;;5058630;28;20444;-67
2022/10/18 10:31:26;;;;;;;12.65;2.75;;;15.30;99.90;;;;;;5047863;28;20045;-68
2022/10/18 10:34:08;;;;;;;14.17;3.00;;;15.20;99.90;;;;;;5046325;28;20653;-67
2022/10/18 10:36:46;;;;;;;14.18;2.47;;;15.40;99.90;;;;;;5045577;28;20044;-67
2022/10/18 10:39:18;;;;;;;16.33;3.15;;;15.50;99.90;;;;;;5059276;28;20051;-68
2022/10/18 10:41:59;;;;;;;13.48;2.72;;;15.60;99.90;;;;;;5062537;28;20044;-67
2022/10/18 10:44:31;;;;;;;14.13;3.00;;;15.70;99.90;;;;;;5067633;28;20044;-68
2022/10/18 10:46:58;;;;;;;22.70;2.97;;;15.70;99.90;;;;;;5046498;28;20564;-67
2022/10/18 10:49:38;;;;;;;18.52;2.53;;;15.70;99.90;;;;;;5050133;28;20063;-68
2022/10/18 10:52:04;;;;;;;18.70;3.47;;;15.70;99.90;;;;;;5028068;28;20045;-67
2022/10/18 10:54:35;;;;;;;12.63;2.60;;;15.60;99.90;;;;;;5065960;28;20107;-68
2022/10/18 10:57:26;;;;;;;8.50;2.28;;;15.50;99.90;;;;;;5051236;28;20624;-68
2022/10/18 10:59:58;;;;;;;13.48;3.13;;;15.50;99.90;;;;;;5042483;28;20503;-67
2022/10/18 11:02:35;;;;;;;13.90;3.13;;;15.60;99.90;;;;;;5083262;28;20514;-67
2022/10/18 11:05:24;;;;;;;12.05;2.58;;;15.80;99.90;;;;;;5084354;28;20047;-67
2022/10/18 11:07:54;;;;;;;15.90;2.25;;;15.90;99.90;;;;;;5084216;28;20036;-68
2022/10/18 11:10:24;;;;;;;11.63;2.45;;;15.80;99.90;;;;;;5086463;28;20032;-67
2022/10/18 11:13:01;;;;;;;;;;;15.60;99.90;;;;;;5079433;28;20040;-67
2022/10/18 11:15:37;;;;;;;13.93;2.35;;;15.50;99.90;;;;;;5085056;28;20015;-67
2022/10/18 11:18:36;;;;;;;12.38;2.60;;;15.30;99.90;;;;;;5079083;28;20050;-67
2022/10/18 11:21:13;;;;;;;12.57;2.50;;;15.10;99.90;;;;;;5047575;28;20501;-67
2022/10/18 11:23:42;;;;;;;16.80;3.13;;;15.30;99.90;;;;;;5059447;28;20110;-67
2022/10/18 11:26:20;;;;;;;13.88;2.53;;;15.50;99.90;;;;;;5064313;28;20054;-67
2022/10/18 11:29:00;;;;;;;9.77;2.03;;;15.80;99.90;;;;;;5075112;28;20045;-67
2022/10/18 11:31:44;;;;;;;12.60;2.67;;;16.00;99.90;;;;;;5050212;28;20044;-67
2022/10/18 11:34:26;;;;;;;12.35;2.47;;;16.20;99.90;;;;;;5068936;28;20497;-67
2022/10/18 11:37:10;;;;;;;9.60;1.95;;;16.10;99.90;;;;;;5075698;28;20051;-66
2022/10/18 11:40:08;;;;;;;10.90;2.33;;;16.00;99.90;;;;;;5075824;28;20109;-67
2022/10/18 11:42:57;;;;;;;10.98;2.17;;;15.90;99.90;;;;;;5031531;28;20098;-66
2022/10/18 11:46:01;;;;;;;12.07;2.10;;;16.00;99.90;;;;;;5061655;28;20056;-66
2022/10/18 11:48:37;;;;;;;16.75;2.40;;;16.10;99.90;;;;;;5037206;28;20051;-66
2022/10/18 11:51:13;;;;;;;10.90;2.33;;;16.10;99.90;;;;;;5075748;28;20119;-66
2022/10/18 11:54:13;;;;;;;12.25;1.95;;;15.90;99.90;;;;;;5076792;28;20056;-67
2022/10/18 11:57:06;;;;;;;14.27;2.25;;;15.90;99.90;;;;;;5074954;28;20060;-66
2022/10/18 11:59:36;;;;;;;12.90;2.17;;;16.00;99.90;;;;;;5069802;28;20090;-66
2022/10/18 12:02:40;;;;;;;13.45;2.05;;;16.10;99.90;;;;;;5056954;28;20041;-67
2022/10/18 12:05:08;;;;;;;8.85;2.47;;;16.20;99.90;;;;;;5065431;28;20139;-71
2022/10/18 12:07:40;;;;;;;11.15;2.20;;;16.30;99.90;;;;;;5057657;28;20045;-66
2022/10/18 12:10:14;;;;;;;12.57;2.47;;;16.40;99.90;;;;;;5077532;28;20615;-66
2022/10/18 12:12:55;;;;;;;8.63;1.77;;;16.50;99.90;;;;;;5076019;28;20040;-71
2022/10/18 12:15:23;;;;;;;12.13;2.25;;;16.50;99.90;;;;;;5089748;27;20028;-66
2022/10/18 12:17:59;;;;;;;9.18;1.92;;;16.50;99.90;;;;;;5080883;28;20063;-66
2022/10/18 12:20:37;;;;;;;14.43;2.17;;;16.60;99.90;;;;;;5077237;28;20576;-66
2022/10/18 12:23:31;;;;;;;12.50;1.98;;;16.60;99.90;;;;;;5063433;28;20045;-66
2022/10/18 12:26:02;;;;;;;14.55;2.38;;;16.60;99.90;;;;;;5048781;28;20056;-66
2022/10/18 12:28:30;;;;;;;14.38;2.65;;;16.70;99.90;;;;;;5073415;28;20044;-66
2022/10/18 12:31:01;;;;;;;8.57;2.05;;;16.80;99.90;;;;;;5086529;28;20032;-66
2022/10/18 12:33:38;;;;;;;9.00;2.05;;;16.70;99.90;;;;;;5085277;28;20117;-66
2022/10/18 12:36:17;;;;;;;23.75;2.63;;;16.70;99.90;;;;;;5089297;28;20121;-66
2022/10/18 12:38:45;;;;;;;11.57;2.35;;;16.80;99.90;;;;;;5049915;28;20605;-66
2022/10/18 12:41:23;;;;;;;10.80;2.28;;;16.80;99.90;;;;;;5088617;28;20567;-66
2022/10/18 12:44:18;;;;;;;13.73;2.28;;;17.00;99.90;;;;;;5089983;28;20039;-66
2022/10/18 12:46:50;;;;;;;13.18;2.40;;;17.10;99.90;;;;;;5086127;28;20048;-66